sensor_id;sensor_type;location;lat;lon;timestamp;P1;durP1;ratioP1;P2;durP2;ratioP2
57313;SDS011;53202;50.976;18.216;2024-02-23T00:00:25;11.00;;;8.30;;
57313;SDS011;53202;50.976;18.216;2024-02-23T00:01:26;12.60;;;8.70;;
57313;SDS011;53202;50.976;18.216;2024-02-23T00:02:28;14.10;;;9.20;;
57313;SDS011;53202;50.976;18.216;2024-02-23T00:03:29;11.40;;;8.30;;
57313;SDS011;53202;50.976;18.216;2024-02-23T00:04:30;11.30;;;7.70;;
57313;SDS011;53202;50.976;18.216;2024-02-23T00:05:31;11.60;;;8.80;;
57313;SDS011;53202;50.976;18.216;2024-02-23T00:06:33;16.70;;;9.20;;
57313;SDS011;53202;50.976;18.216;2024-02-23T00:07:34;13.30;;;8.60;;
57313;SDS011;53202;50.976;18.216;2024-02-23T00:08:35;17.10;;;9.50;;
57313;SDS011;53202;50.976;18.216;2024-02-23T00:09:38;14.30;;;9.30;;
57313;SDS011;53202;50.976;18.216;2024-02-23T00:10:39;12.10;;;8.70;;
57313;SDS011;53202;50.976;18.216;2024-02-23T00:11:40;19.50;;;10.50;;
57313;SDS011;53202;50.976;18.216;2024-02-23T00:12:44;13.60;;;9.10;;
57313;SDS011;53202;50.976;18.216;2024-02-23T00:13:47;12.80;;;8.90;;
57313;SDS011;53202;50.976;18.216;2024-02-23T00:14:48;15.10;;;9.60;;
57313;SDS011;53202;50.976;18.216;2024-02-23T00:15:51;15.00;;;9.70;;
57313;SDS011;53202;50.976;18.216;2024-02-23T00:16:52;15.30;;;8.60;;
57313;SDS011;53202;50.976;18.216;2024-02-23T00:17:53;13.20;;;9.20;;
57313;SDS011;53202;50.976;18.216;2024-02-23T00:18:54;18.40;;;9.50;;
57313;SDS011;53202;50.976;18.216;2024-02-23T00:19:55;14.60;;;9.10;;
57313;SDS011;53202;50.976;18.216;2024-02-23T00:20:56;14.60;;;9.20;;
57313;SDS011;53202;50.976;18.216;2024-02-23T00:21:57;11.20;;;9.20;;
57313;SDS011;53202;50.976;18.216;2024-02-23T00:22:59;15.40;;;8.60;;
57313;SDS011;53202;50.976;18.216;2024-02-23T00:24:00;14.10;;;8.90;;
57313;SDS011;53202;50.976;18.216;2024-02-23T00:25:01;12.10;;;8.50;;
57313;SDS011;53202;50.976;18.216;2024-02-23T00:26:02;12.80;;;9.90;;
57313;SDS011;53202;50.976;18.216;2024-02-23T00:27:03;11.70;;;8.80;;
57313;SDS011;53202;50.976;18.216;2024-02-23T00:28:05;11.40;;;8.30;;
57313;SDS011;53202;50.976;18.216;2024-02-23T00:29:06;13.50;;;8.90;;
57313;SDS011;53202;50.976;18.216;2024-02-23T00:30:07;12.60;;;9.10;;
57313;SDS011;53202;50.976;18.216;2024-02-23T00:31:09;13.20;;;9.20;;
57313;SDS011;53202;50.976;18.216;2024-02-23T00:32:10;10.70;;;9.50;;
57313;SDS011;53202;50.976;18.216;2024-02-23T00:33:11;10.10;;;8.20;;
57313;SDS011;53202;50.976;18.216;2024-02-23T00:34:13;10.10;;;8.80;;
57313;SDS011;53202;50.976;18.216;2024-02-23T00:35:14;13.70;;;8.90;;
57313;SDS011;53202;50.976;18.216;2024-02-23T00:36:15;10.00;;;7.60;;
57313;SDS011;53202;50.976;18.216;2024-02-23T00:37:16;10.60;;;9.00;;
57313;SDS011;53202;50.976;18.216;2024-02-23T00:38:17;12.60;;;8.90;;
57313;SDS011;53202;50.976;18.216;2024-02-23T00:39:18;12.50;;;9.00;;
57313;SDS011;53202;50.976;18.216;2024-02-23T00:40:19;10.60;;;8.50;;
57313;SDS011;53202;50.976;18.216;2024-02-23T00:41:20;11.80;;;8.70;;
57313;SDS011;53202;50.976;18.216;2024-02-23T00:42:21;11.40;;;8.80;;
57313;SDS011;53202;50.976;18.216;2024-02-23T00:43:22;10.80;;;8.20;;
57313;SDS011;53202;50.976;18.216;2024-02-23T00:44:24;14.70;;;8.20;;
57313;SDS011;53202;50.976;18.216;2024-02-23T00:45:25;10.30;;;8.60;;
57313;SDS011;53202;50.976;18.216;2024-02-23T00:46:26;13.50;;;8.90;;
57313;SDS011;53202;50.976;18.216;2024-02-23T00:47:27;9.40;;;8.00;;
57313;SDS011;53202;50.976;18.216;2024-02-23T00:48:28;12.70;;;9.00;;
57313;SDS011;53202;50.976;18.216;2024-02-23T00:49:30;9.00;;;7.90;;
57313;SDS011;53202;50.976;18.216;2024-02-23T00:50:31;10.70;;;8.20;;
57313;SDS011;53202;50.976;18.216;2024-02-23T00:51:32;11.30;;;7.80;;
57313;SDS011;53202;50.976;18.216;2024-02-23T00:52:33;14.30;;;10.00;;
57313;SDS011;53202;50.976;18.216;2024-02-23T00:53:34;13.40;;;8.60;;
57313;SDS011;53202;50.976;18.216;2024-02-23T00:54:35;11.30;;;8.70;;
57313;SDS011;53202;50.976;18.216;2024-02-23T00:55:36;9.10;;;7.90;;
57313;SDS011;53202;50.976;18.216;2024-02-23T00:56:37;13.40;;;8.40;;
57313;SDS011;53202;50.976;18.216;2024-02-23T00:57:39;10.50;;;7.10;;
57313;SDS011;53202;50.976;18.216;2024-02-23T00:58:40;9.20;;;7.50;;
57313;SDS011;53202;50.976;18.216;2024-02-23T00:59:41;13.00;;;7.70;;
57313;SDS011;53202;50.976;18.216;2024-02-23T01:00:42;10.50;;;7.70;;
57313;SDS011;53202;50.976;18.216;2024-02-23T01:01:43;11.70;;;8.10;;
57313;SDS011;53202;50.976;18.216;2024-02-23T01:02:44;10.90;;;6.90;;
57313;SDS011;53202;50.976;18.216;2024-02-23T01:03:45;9.80;;;7.70;;
57313;SDS011;53202;50.976;18.216;2024-02-23T01:04:46;9.80;;;8.00;;
57313;SDS011;53202;50.976;18.216;2024-02-23T01:05:47;7.40;;;6.50;;
57313;SDS011;53202;50.976;18.216;2024-02-23T01:06:48;11.30;;;8.00;;
57313;SDS011;53202;50.976;18.216;2024-02-23T01:07:49;8.40;;;6.90;;
57313;SDS011;53202;50.976;18.216;2024-02-23T01:08:50;7.40;;;5.80;;
57313;SDS011;53202;50.976;18.216;2024-02-23T01:09:51;9.30;;;6.60;;
57313;SDS011;53202;50.976;18.216;2024-02-23T01:10:52;9.00;;;6.20;;
57313;SDS011;53202;50.976;18.216;2024-02-23T01:11:53;8.70;;;6.60;;
57313;SDS011;53202;50.976;18.216;2024-02-23T01:12:54;14.60;;;7.50;;
57313;SDS011;53202;50.976;18.216;2024-02-23T01:13:55;12.80;;;8.70;;
57313;SDS011;53202;50.976;18.216;2024-02-23T01:14:57;12.70;;;8.30;;
57313;SDS011;53202;50.976;18.216;2024-02-23T01:15:58;12.90;;;7.60;;
57313;SDS011;53202;50.976;18.216;2024-02-23T01:16:59;8.60;;;7.40;;
57313;SDS011;53202;50.976;18.216;2024-02-23T01:18:00;10.20;;;6.90;;
57313;SDS011;53202;50.976;18.216;2024-02-23T01:19:01;12.60;;;8.30;;
57313;SDS011;53202;50.976;18.216;2024-02-23T01:20:03;11.40;;;7.50;;
57313;SDS011;53202;50.976;18.216;2024-02-23T01:21:05;11.50;;;7.80;;
57313;SDS011;53202;50.976;18.216;2024-02-23T01:22:06;9.00;;;5.90;;
57313;SDS011;53202;50.976;18.216;2024-02-23T01:23:07;10.80;;;7.00;;
57313;SDS011;53202;50.976;18.216;2024-02-23T01:24:08;11.50;;;7.10;;
57313;SDS011;53202;50.976;18.216;2024-02-23T01:25:09;9.40;;;7.00;;
57313;SDS011;53202;50.976;18.216;2024-02-23T01:26:10;8.80;;;6.00;;
57313;SDS011;53202;50.976;18.216;2024-02-23T01:27:11;9.50;;;6.50;;
57313;SDS011;53202;50.976;18.216;2024-02-23T01:28:12;12.50;;;8.20;;
57313;SDS011;53202;50.976;18.216;2024-02-23T01:29:13;10.00;;;6.70;;
57313;SDS011;53202;50.976;18.216;2024-02-23T01:30:14;9.00;;;6.70;;
57313;SDS011;53202;50.976;18.216;2024-02-23T01:31:16;10.40;;;7.40;;
57313;SDS011;53202;50.976;18.216;2024-02-23T01:32:33;8.40;;;6.60;;
57313;SDS011;53202;50.976;18.216;2024-02-23T01:33:34;8.30;;;5.80;;
57313;SDS011;53202;50.976;18.216;2024-02-23T01:34:36;6.60;;;5.90;;
57313;SDS011;53202;50.976;18.216;2024-02-23T01:35:37;7.70;;;6.80;;
57313;SDS011;53202;50.976;18.216;2024-02-23T01:36:38;11.10;;;6.90;;
57313;SDS011;53202;50.976;18.216;2024-02-23T01:37:39;7.90;;;6.80;;
57313;SDS011;53202;50.976;18.216;2024-02-23T01:38:40;9.40;;;6.80;;
57313;SDS011;53202;50.976;18.216;2024-02-23T01:39:43;9.50;;;6.80;;
57313;SDS011;53202;50.976;18.216;2024-02-23T01:40:44;10.00;;;6.40;;
57313;SDS011;53202;50.976;18.216;2024-02-23T01:41:45;12.30;;;6.90;;
57313;SDS011;53202;50.976;18.216;2024-02-23T01:42:46;9.10;;;7.20;;
57313;SDS011;53202;50.976;18.216;2024-02-23T01:43:47;10.50;;;6.70;;
57313;SDS011;53202;50.976;18.216;2024-02-23T01:44:49;9.60;;;7.30;;
57313;SDS011;53202;50.976;18.216;2024-02-23T01:45:50;10.80;;;7.10;;
57313;SDS011;53202;50.976;18.216;2024-02-23T01:46:52;9.50;;;7.10;;
57313;SDS011;53202;50.976;18.216;2024-02-23T01:47:53;11.10;;;8.40;;
57313;SDS011;53202;50.976;18.216;2024-02-23T01:48:54;10.40;;;7.00;;
57313;SDS011;53202;50.976;18.216;2024-02-23T01:49:55;11.40;;;7.90;;
57313;SDS011;53202;50.976;18.216;2024-02-23T01:50:58;10.10;;;8.40;;
57313;SDS011;53202;50.976;18.216;2024-02-23T01:52:00;8.90;;;7.10;;
57313;SDS011;53202;50.976;18.216;2024-02-23T01:53:02;10.50;;;7.50;;
57313;SDS011;53202;50.976;18.216;2024-02-23T01:54:03;9.00;;;7.00;;
57313;SDS011;53202;50.976;18.216;2024-02-23T01:55:04;9.90;;;7.90;;
57313;SDS011;53202;50.976;18.216;2024-02-23T01:56:06;12.70;;;8.80;;
57313;SDS011;53202;50.976;18.216;2024-02-23T01:57:07;12.00;;;8.90;;
57313;SDS011;53202;50.976;18.216;2024-02-23T01:58:09;13.30;;;8.30;;
57313;SDS011;53202;50.976;18.216;2024-02-23T01:59:10;11.90;;;8.10;;
57313;SDS011;53202;50.976;18.216;2024-02-23T02:00:12;9.60;;;8.50;;
57313;SDS011;53202;50.976;18.216;2024-02-23T02:01:17;13.80;;;8.50;;
57313;SDS011;53202;50.976;18.216;2024-02-23T02:02:18;13.70;;;7.80;;
57313;SDS011;53202;50.976;18.216;2024-02-23T02:03:19;10.40;;;7.80;;
57313;SDS011;53202;50.976;18.216;2024-02-23T02:04:20;16.00;;;8.60;;
57313;SDS011;53202;50.976;18.216;2024-02-23T02:05:21;11.30;;;9.00;;
57313;SDS011;53202;50.976;18.216;2024-02-23T02:06:23;12.20;;;8.60;;
57313;SDS011;53202;50.976;18.216;2024-02-23T02:07:25;9.80;;;8.40;;
57313;SDS011;53202;50.976;18.216;2024-02-23T02:08:26;10.00;;;7.60;;
57313;SDS011;53202;50.976;18.216;2024-02-23T02:09:27;12.10;;;9.40;;
57313;SDS011;53202;50.976;18.216;2024-02-23T02:10:28;11.10;;;7.60;;
57313;SDS011;53202;50.976;18.216;2024-02-23T02:11:29;12.40;;;7.90;;
57313;SDS011;53202;50.976;18.216;2024-02-23T02:12:30;15.40;;;8.10;;
57313;SDS011;53202;50.976;18.216;2024-02-23T02:13:31;15.60;;;9.90;;
57313;SDS011;53202;50.976;18.216;2024-02-23T02:14:32;14.70;;;8.50;;
57313;SDS011;53202;50.976;18.216;2024-02-23T02:15:34;14.50;;;9.20;;
57313;SDS011;53202;50.976;18.216;2024-02-23T02:16:35;14.30;;;8.80;;
57313;SDS011;53202;50.976;18.216;2024-02-23T02:17:36;12.60;;;9.60;;
57313;SDS011;53202;50.976;18.216;2024-02-23T02:18:37;10.80;;;9.10;;
57313;SDS011;53202;50.976;18.216;2024-02-23T02:19:39;13.90;;;9.50;;
57313;SDS011;53202;50.976;18.216;2024-02-23T02:20:54;13.40;;;9.20;;
57313;SDS011;53202;50.976;18.216;2024-02-23T02:21:57;16.90;;;8.10;;
57313;SDS011;53202;50.976;18.216;2024-02-23T02:22:58;10.20;;;7.70;;
57313;SDS011;53202;50.976;18.216;2024-02-23T02:23:59;11.10;;;9.00;;
57313;SDS011;53202;50.976;18.216;2024-02-23T02:25:00;17.30;;;10.20;;
57313;SDS011;53202;50.976;18.216;2024-02-23T02:26:01;12.70;;;8.50;;
57313;SDS011;53202;50.976;18.216;2024-02-23T02:27:02;17.40;;;9.10;;
57313;SDS011;53202;50.976;18.216;2024-02-23T02:28:05;10.80;;;8.70;;
57313;SDS011;53202;50.976;18.216;2024-02-23T02:29:08;10.80;;;7.90;;
57313;SDS011;53202;50.976;18.216;2024-02-23T02:30:09;22.00;;;10.20;;
57313;SDS011;53202;50.976;18.216;2024-02-23T02:31:10;13.00;;;9.30;;
57313;SDS011;53202;50.976;18.216;2024-02-23T02:32:11;18.00;;;8.40;;
57313;SDS011;53202;50.976;18.216;2024-02-23T02:33:12;10.50;;;7.70;;
57313;SDS011;53202;50.976;18.216;2024-02-23T02:34:13;14.00;;;9.00;;
57313;SDS011;53202;50.976;18.216;2024-02-23T02:35:15;12.80;;;8.60;;
57313;SDS011;53202;50.976;18.216;2024-02-23T02:36:16;13.80;;;8.90;;
57313;SDS011;53202;50.976;18.216;2024-02-23T02:37:17;13.60;;;9.10;;
57313;SDS011;53202;50.976;18.216;2024-02-23T02:38:18;15.80;;;9.70;;
57313;SDS011;53202;50.976;18.216;2024-02-23T02:39:19;12.70;;;9.60;;
57313;SDS011;53202;50.976;18.216;2024-02-23T02:40:20;13.20;;;10.50;;
57313;SDS011;53202;50.976;18.216;2024-02-23T02:41:22;13.20;;;9.20;;
57313;SDS011;53202;50.976;18.216;2024-02-23T02:42:24;17.40;;;10.30;;
57313;SDS011;53202;50.976;18.216;2024-02-23T02:43:25;14.10;;;9.30;;
57313;SDS011;53202;50.976;18.216;2024-02-23T02:44:27;13.60;;;9.70;;
57313;SDS011;53202;50.976;18.216;2024-02-23T02:45:30;12.50;;;9.40;;
57313;SDS011;53202;50.976;18.216;2024-02-23T02:46:31;11.20;;;8.50;;
57313;SDS011;53202;50.976;18.216;2024-02-23T02:47:32;17.60;;;9.80;;
57313;SDS011;53202;50.976;18.216;2024-02-23T02:48:34;14.50;;;9.60;;
57313;SDS011;53202;50.976;18.216;2024-02-23T02:49:35;10.60;;;8.40;;
57313;SDS011;53202;50.976;18.216;2024-02-23T02:50:36;14.00;;;8.90;;
57313;SDS011;53202;50.976;18.216;2024-02-23T02:51:37;16.20;;;9.80;;
57313;SDS011;53202;50.976;18.216;2024-02-23T02:52:38;15.90;;;9.20;;
57313;SDS011;53202;50.976;18.216;2024-02-23T02:53:38;13.90;;;9.40;;
57313;SDS011;53202;50.976;18.216;2024-02-23T02:54:39;13.60;;;7.90;;
57313;SDS011;53202;50.976;18.216;2024-02-23T02:55:41;17.30;;;9.20;;
57313;SDS011;53202;50.976;18.216;2024-02-23T02:56:43;13.60;;;9.40;;
57313;SDS011;53202;50.976;18.216;2024-02-23T02:57:46;12.20;;;9.00;;
57313;SDS011;53202;50.976;18.216;2024-02-23T02:58:47;15.20;;;9.10;;
57313;SDS011;53202;50.976;18.216;2024-02-23T02:59:48;13.60;;;8.50;;
57313;SDS011;53202;50.976;18.216;2024-02-23T03:00:50;14.40;;;8.90;;
57313;SDS011;53202;50.976;18.216;2024-02-23T03:01:51;11.00;;;7.60;;
57313;SDS011;53202;50.976;18.216;2024-02-23T03:02:53;14.20;;;8.70;;
57313;SDS011;53202;50.976;18.216;2024-02-23T03:03:54;16.70;;;9.20;;
57313;SDS011;53202;50.976;18.216;2024-02-23T03:04:55;9.00;;;8.10;;
57313;SDS011;53202;50.976;18.216;2024-02-23T03:05:56;11.50;;;8.60;;
57313;SDS011;53202;50.976;18.216;2024-02-23T03:06:57;11.90;;;7.60;;
57313;SDS011;53202;50.976;18.216;2024-02-23T03:07:58;10.70;;;8.60;;
57313;SDS011;53202;50.976;18.216;2024-02-23T03:08:59;17.70;;;7.60;;
57313;SDS011;53202;50.976;18.216;2024-02-23T03:10:00;16.10;;;8.30;;
57313;SDS011;53202;50.976;18.216;2024-02-23T03:11:01;13.90;;;7.60;;
57313;SDS011;53202;50.976;18.216;2024-02-23T03:12:02;15.50;;;8.60;;
57313;SDS011;53202;50.976;18.216;2024-02-23T03:13:03;11.40;;;8.40;;
57313;SDS011;53202;50.976;18.216;2024-02-23T03:14:04;10.10;;;7.70;;
57313;SDS011;53202;50.976;18.216;2024-02-23T03:15:07;11.70;;;7.80;;
57313;SDS011;53202;50.976;18.216;2024-02-23T03:17:25;12.50;;;7.80;;
57313;SDS011;53202;50.976;18.216;2024-02-23T03:18:26;11.80;;;7.60;;
57313;SDS011;53202;50.976;18.216;2024-02-23T03:19:29;15.90;;;8.60;;
57313;SDS011;53202;50.976;18.216;2024-02-23T03:20:30;9.20;;;7.80;;
57313;SDS011;53202;50.976;18.216;2024-02-23T03:21:31;9.10;;;7.10;;
57313;SDS011;53202;50.976;18.216;2024-02-23T03:22:32;11.20;;;7.60;;
57313;SDS011;53202;50.976;18.216;2024-02-23T03:23:33;9.70;;;7.90;;
57313;SDS011;53202;50.976;18.216;2024-02-23T03:24:34;10.00;;;7.40;;
57313;SDS011;53202;50.976;18.216;2024-02-23T03:25:35;9.80;;;8.00;;
57313;SDS011;53202;50.976;18.216;2024-02-23T03:26:36;17.40;;;8.80;;
57313;SDS011;53202;50.976;18.216;2024-02-23T03:27:37;11.30;;;7.10;;
57313;SDS011;53202;50.976;18.216;2024-02-23T03:28:38;13.60;;;8.20;;
57313;SDS011;53202;50.976;18.216;2024-02-23T03:29:40;10.30;;;7.40;;
57313;SDS011;53202;50.976;18.216;2024-02-23T03:30:45;22.50;;;9.20;;
57313;SDS011;53202;50.976;18.216;2024-02-23T03:31:46;8.40;;;6.60;;
57313;SDS011;53202;50.976;18.216;2024-02-23T03:32:47;10.30;;;8.10;;
57313;SDS011;53202;50.976;18.216;2024-02-23T03:33:48;11.70;;;8.10;;
57313;SDS011;53202;50.976;18.216;2024-02-23T03:34:49;10.30;;;7.90;;
57313;SDS011;53202;50.976;18.216;2024-02-23T03:35:50;9.90;;;6.60;;
57313;SDS011;53202;50.976;18.216;2024-02-23T03:36:51;8.50;;;7.10;;
57313;SDS011;53202;50.976;18.216;2024-02-23T03:37:52;12.00;;;7.80;;
57313;SDS011;53202;50.976;18.216;2024-02-23T03:38:53;11.40;;;8.30;;
57313;SDS011;53202;50.976;18.216;2024-02-23T03:39:54;10.90;;;7.70;;
57313;SDS011;53202;50.976;18.216;2024-02-23T03:40:55;9.60;;;8.40;;
57313;SDS011;53202;50.976;18.216;2024-02-23T03:41:56;8.90;;;6.80;;
57313;SDS011;53202;50.976;18.216;2024-02-23T03:42:57;10.10;;;6.60;;
57313;SDS011;53202;50.976;18.216;2024-02-23T03:43:58;11.00;;;7.30;;
57313;SDS011;53202;50.976;18.216;2024-02-23T03:44:59;9.60;;;6.90;;
57313;SDS011;53202;50.976;18.216;2024-02-23T03:46:00;9.10;;;7.20;;
57313;SDS011;53202;50.976;18.216;2024-02-23T03:47:01;11.10;;;7.80;;
57313;SDS011;53202;50.976;18.216;2024-02-23T03:48:03;9.10;;;7.40;;
57313;SDS011;53202;50.976;18.216;2024-02-23T03:49:06;10.80;;;8.00;;
57313;SDS011;53202;50.976;18.216;2024-02-23T03:50:07;13.20;;;8.40;;
57313;SDS011;53202;50.976;18.216;2024-02-23T03:51:09;12.00;;;7.80;;
57313;SDS011;53202;50.976;18.216;2024-02-23T03:52:10;10.60;;;7.60;;
57313;SDS011;53202;50.976;18.216;2024-02-23T03:53:11;12.10;;;7.00;;
57313;SDS011;53202;50.976;18.216;2024-02-23T03:54:12;12.50;;;8.10;;
57313;SDS011;53202;50.976;18.216;2024-02-23T03:55:13;8.80;;;6.80;;
57313;SDS011;53202;50.976;18.216;2024-02-23T03:56:15;9.80;;;7.00;;
57313;SDS011;53202;50.976;18.216;2024-02-23T03:57:16;10.40;;;7.30;;
57313;SDS011;53202;50.976;18.216;2024-02-23T03:58:17;11.10;;;7.10;;
57313;SDS011;53202;50.976;18.216;2024-02-23T03:59:18;11.70;;;7.30;;
57313;SDS011;53202;50.976;18.216;2024-02-23T04:00:19;11.40;;;6.70;;
57313;SDS011;53202;50.976;18.216;2024-02-23T04:01:22;11.30;;;6.50;;
57313;SDS011;53202;50.976;18.216;2024-02-23T04:02:23;10.30;;;7.30;;
57313;SDS011;53202;50.976;18.216;2024-02-23T04:03:24;11.00;;;7.50;;
57313;SDS011;53202;50.976;18.216;2024-02-23T04:04:25;12.70;;;7.00;;
57313;SDS011;53202;50.976;18.216;2024-02-23T04:05:26;10.50;;;7.20;;
57313;SDS011;53202;50.976;18.216;2024-02-23T04:06:27;16.20;;;6.60;;
57313;SDS011;53202;50.976;18.216;2024-02-23T04:07:28;11.50;;;7.50;;
57313;SDS011;53202;50.976;18.216;2024-02-23T04:08:29;10.70;;;7.20;;
57313;SDS011;53202;50.976;18.216;2024-02-23T04:09:30;11.80;;;7.20;;
57313;SDS011;53202;50.976;18.216;2024-02-23T04:10:31;8.80;;;7.20;;
57313;SDS011;53202;50.976;18.216;2024-02-23T04:11:32;9.20;;;6.60;;
57313;SDS011;53202;50.976;18.216;2024-02-23T04:12:33;14.50;;;7.00;;
57313;SDS011;53202;50.976;18.216;2024-02-23T04:13:34;12.50;;;7.60;;
57313;SDS011;53202;50.976;18.216;2024-02-23T04:14:35;13.40;;;8.20;;
57313;SDS011;53202;50.976;18.216;2024-02-23T04:15:36;9.30;;;6.70;;
57313;SDS011;53202;50.976;18.216;2024-02-23T04:16:37;12.60;;;8.40;;
57313;SDS011;53202;50.976;18.216;2024-02-23T04:17:38;13.60;;;7.70;;
57313;SDS011;53202;50.976;18.216;2024-02-23T04:18:39;15.50;;;8.70;;
57313;SDS011;53202;50.976;18.216;2024-02-23T04:19:40;13.30;;;6.90;;
57313;SDS011;53202;50.976;18.216;2024-02-23T04:20:42;13.30;;;7.60;;
57313;SDS011;53202;50.976;18.216;2024-02-23T04:21:43;13.90;;;7.70;;
57313;SDS011;53202;50.976;18.216;2024-02-23T04:22:44;12.20;;;7.80;;
57313;SDS011;53202;50.976;18.216;2024-02-23T04:23:46;11.80;;;7.50;;
57313;SDS011;53202;50.976;18.216;2024-02-23T04:24:47;9.80;;;6.90;;
57313;SDS011;53202;50.976;18.216;2024-02-23T04:25:48;14.00;;;7.80;;
57313;SDS011;53202;50.976;18.216;2024-02-23T04:26:51;10.10;;;6.70;;
57313;SDS011;53202;50.976;18.216;2024-02-23T04:27:52;12.00;;;7.80;;
57313;SDS011;53202;50.976;18.216;2024-02-23T04:28:53;8.10;;;7.20;;
57313;SDS011;53202;50.976;18.216;2024-02-23T04:29:54;8.30;;;6.20;;
57313;SDS011;53202;50.976;18.216;2024-02-23T04:30:55;8.80;;;6.20;;
57313;SDS011;53202;50.976;18.216;2024-02-23T04:31:56;13.20;;;7.90;;
57313;SDS011;53202;50.976;18.216;2024-02-23T04:32:58;7.30;;;6.20;;
57313;SDS011;53202;50.976;18.216;2024-02-23T04:33:59;11.00;;;7.00;;
57313;SDS011;53202;50.976;18.216;2024-02-23T04:35:00;12.70;;;7.20;;
57313;SDS011;53202;50.976;18.216;2024-02-23T04:36:02;10.20;;;7.20;;
57313;SDS011;53202;50.976;18.216;2024-02-23T04:37:04;7.20;;;5.40;;
57313;SDS011;53202;50.976;18.216;2024-02-23T04:38:05;9.00;;;6.30;;
57313;SDS011;53202;50.976;18.216;2024-02-23T04:39:06;12.10;;;6.10;;
57313;SDS011;53202;50.976;18.216;2024-02-23T04:40:07;7.50;;;6.30;;
57313;SDS011;53202;50.976;18.216;2024-02-23T04:41:09;9.70;;;5.70;;
57313;SDS011;53202;50.976;18.216;2024-02-23T04:42:10;11.60;;;6.40;;
57313;SDS011;53202;50.976;18.216;2024-02-23T04:43:11;11.70;;;6.10;;
57313;SDS011;53202;50.976;18.216;2024-02-23T04:44:12;12.70;;;6.50;;
57313;SDS011;53202;50.976;18.216;2024-02-23T04:45:13;7.20;;;6.00;;
57313;SDS011;53202;50.976;18.216;2024-02-23T04:46:14;12.40;;;5.90;;
57313;SDS011;53202;50.976;18.216;2024-02-23T04:47:15;9.00;;;6.20;;
57313;SDS011;53202;50.976;18.216;2024-02-23T04:48:16;8.50;;;5.60;;
57313;SDS011;53202;50.976;18.216;2024-02-23T04:49:17;8.30;;;6.30;;
57313;SDS011;53202;50.976;18.216;2024-02-23T04:50:18;7.50;;;5.20;;
57313;SDS011;53202;50.976;18.216;2024-02-23T04:51:19;9.70;;;5.90;;
57313;SDS011;53202;50.976;18.216;2024-02-23T04:52:22;9.50;;;6.60;;
57313;SDS011;53202;50.976;18.216;2024-02-23T04:53:24;12.50;;;6.10;;
57313;SDS011;53202;50.976;18.216;2024-02-23T04:54:25;6.70;;;5.70;;
57313;SDS011;53202;50.976;18.216;2024-02-23T04:55:26;8.00;;;6.20;;
57313;SDS011;53202;50.976;18.216;2024-02-23T04:56:27;12.40;;;6.70;;
57313;SDS011;53202;50.976;18.216;2024-02-23T04:57:27;8.30;;;6.30;;
57313;SDS011;53202;50.976;18.216;2024-02-23T04:58:28;10.20;;;6.00;;
57313;SDS011;53202;50.976;18.216;2024-02-23T04:59:29;7.80;;;5.70;;
57313;SDS011;53202;50.976;18.216;2024-02-23T05:00:32;8.20;;;6.30;;
57313;SDS011;53202;50.976;18.216;2024-02-23T05:01:35;10.30;;;5.50;;
57313;SDS011;53202;50.976;18.216;2024-02-23T05:02:37;8.20;;;6.00;;
57313;SDS011;53202;50.976;18.216;2024-02-23T05:03:38;6.50;;;5.00;;
57313;SDS011;53202;50.976;18.216;2024-02-23T05:04:39;13.90;;;6.60;;
57313;SDS011;53202;50.976;18.216;2024-02-23T05:05:40;6.10;;;5.40;;
57313;SDS011;53202;50.976;18.216;2024-02-23T05:06:41;8.10;;;6.30;;
57313;SDS011;53202;50.976;18.216;2024-02-23T05:07:43;9.60;;;6.50;;
57313;SDS011;53202;50.976;18.216;2024-02-23T05:08:44;9.30;;;5.50;;
57313;SDS011;53202;50.976;18.216;2024-02-23T05:09:47;14.60;;;6.10;;
57313;SDS011;53202;50.976;18.216;2024-02-23T05:10:48;7.40;;;5.70;;
57313;SDS011;53202;50.976;18.216;2024-02-23T05:11:50;7.80;;;5.60;;
57313;SDS011;53202;50.976;18.216;2024-02-23T05:12:51;5.90;;;5.20;;
57313;SDS011;53202;50.976;18.216;2024-02-23T05:13:52;7.50;;;5.90;;
57313;SDS011;53202;50.976;18.216;2024-02-23T05:14:53;10.30;;;6.00;;
57313;SDS011;53202;50.976;18.216;2024-02-23T05:15:55;11.70;;;6.60;;
57313;SDS011;53202;50.976;18.216;2024-02-23T05:16:57;13.00;;;6.80;;
57313;SDS011;53202;50.976;18.216;2024-02-23T05:17:58;11.70;;;6.60;;
57313;SDS011;53202;50.976;18.216;2024-02-23T05:18:59;9.80;;;6.60;;
57313;SDS011;53202;50.976;18.216;2024-02-23T05:20:00;8.10;;;6.40;;
57313;SDS011;53202;50.976;18.216;2024-02-23T05:21:07;15.20;;;5.60;;
57313;SDS011;53202;50.976;18.216;2024-02-23T05:22:08;11.20;;;5.70;;
57313;SDS011;53202;50.976;18.216;2024-02-23T05:23:09;9.00;;;6.60;;
57313;SDS011;53202;50.976;18.216;2024-02-23T05:24:11;12.20;;;6.90;;
57313;SDS011;53202;50.976;18.216;2024-02-23T05:25:12;14.80;;;6.00;;
57313;SDS011;53202;50.976;18.216;2024-02-23T05:26:13;12.80;;;6.50;;
57313;SDS011;53202;50.976;18.216;2024-02-23T05:27:14;8.70;;;6.00;;
57313;SDS011;53202;50.976;18.216;2024-02-23T05:28:15;10.60;;;5.50;;
57313;SDS011;53202;50.976;18.216;2024-02-23T05:29:16;9.90;;;5.40;;
57313;SDS011;53202;50.976;18.216;2024-02-23T05:30:19;13.90;;;5.40;;
57313;SDS011;53202;50.976;18.216;2024-02-23T05:32:44;6.80;;;5.00;;
57313;SDS011;53202;50.976;18.216;2024-02-23T05:33:47;11.60;;;5.60;;
57313;SDS011;53202;50.976;18.216;2024-02-23T05:34:48;8.00;;;5.90;;
57313;SDS011;53202;50.976;18.216;2024-02-23T05:35:51;9.20;;;5.90;;
57313;SDS011;53202;50.976;18.216;2024-02-23T05:36:52;10.60;;;6.10;;
57313;SDS011;53202;50.976;18.216;2024-02-23T05:37:54;11.70;;;5.20;;
57313;SDS011;53202;50.976;18.216;2024-02-23T05:38:55;8.50;;;5.70;;
57313;SDS011;53202;50.976;18.216;2024-02-23T05:39:56;8.40;;;5.50;;
57313;SDS011;53202;50.976;18.216;2024-02-23T05:41:00;8.30;;;5.80;;
57313;SDS011;53202;50.976;18.216;2024-02-23T05:42:01;13.80;;;5.50;;
57313;SDS011;53202;50.976;18.216;2024-02-23T05:43:02;7.80;;;5.50;;
57313;SDS011;53202;50.976;18.216;2024-02-23T05:44:03;11.40;;;6.50;;
57313;SDS011;53202;50.976;18.216;2024-02-23T05:45:07;12.40;;;5.90;;
57313;SDS011;53202;50.976;18.216;2024-02-23T05:46:09;7.40;;;5.20;;
57313;SDS011;53202;50.976;18.216;2024-02-23T05:47:10;13.80;;;5.70;;
57313;SDS011;53202;50.976;18.216;2024-02-23T05:48:11;11.00;;;7.10;;
57313;SDS011;53202;50.976;18.216;2024-02-23T05:49:15;11.50;;;6.50;;
57313;SDS011;53202;50.976;18.216;2024-02-23T05:50:16;7.50;;;5.30;;
57313;SDS011;53202;50.976;18.216;2024-02-23T05:51:17;8.50;;;5.70;;
57313;SDS011;53202;50.976;18.216;2024-02-23T05:52:18;9.70;;;6.00;;
57313;SDS011;53202;50.976;18.216;2024-02-23T05:53:19;11.00;;;5.00;;
57313;SDS011;53202;50.976;18.216;2024-02-23T05:54:20;6.90;;;4.80;;
57313;SDS011;53202;50.976;18.216;2024-02-23T05:55:21;8.90;;;6.10;;
57313;SDS011;53202;50.976;18.216;2024-02-23T05:56:22;18.30;;;6.60;;
57313;SDS011;53202;50.976;18.216;2024-02-23T05:57:24;11.70;;;6.10;;
57313;SDS011;53202;50.976;18.216;2024-02-23T05:58:27;11.10;;;6.30;;
57313;SDS011;53202;50.976;18.216;2024-02-23T05:59:28;10.90;;;6.30;;
57313;SDS011;53202;50.976;18.216;2024-02-23T06:00:29;10.90;;;6.40;;
57313;SDS011;53202;50.976;18.216;2024-02-23T06:01:31;11.60;;;6.60;;
57313;SDS011;53202;50.976;18.216;2024-02-23T06:02:32;8.80;;;5.70;;
57313;SDS011;53202;50.976;18.216;2024-02-23T06:03:33;12.30;;;5.50;;